Time;durP1;ratioP1;P1;durP2;ratioP2;P2;SDS_P1;SDS_P2;PMS_P1;PMS_P2;Temp;Humidity;BMP_temperature;BMP_pressure;BME280_temperature;BME280_humidity;BME280_pressure;Samples;Min_cycle;Max_cycle;Signal;HPM_P1;HPM_P2
2022/03/27 00:02:24;;;;;;;0.60;0.60;;;20.90;44.30;;;;;;5092722;27;43479;-60
2022/03/27 00:04:52;;;;;;;0.82;0.60;;;20.90;44.20;;;;;;5081561;27;43603;-61
2022/03/27 00:07:19;;;;;;;1.00;0.70;;;20.90;44.90;;;;;;5127781;27;44769;-61
2022/03/27 00:09:47;;;;;;;1.40;0.70;;;20.80;44.20;;;;;;5082344;27;43786;-61
2022/03/27 00:12:14;;;;;;;1.00;0.70;;;20.80;44.10;;;;;;5065808;27;43487;-60
2022/03/27 00:14:42;;;;;;;1.40;0.88;;;20.80;44.10;;;;;;5072764;27;43614;-60
2022/03/27 00:17:09;;;;;;;0.70;0.70;;;20.80;44.20;;;;;;5119599;27;43801;-61
2022/03/27 00:19:37;;;;;;;0.75;0.70;;;20.80;44.20;;;;;;5079893;27;43515;-61
2022/03/27 00:22:05;;;;;;;1.17;0.80;;;20.80;44.20;;;;;;5074980;27;43537;-61
2022/03/27 00:24:32;;;;;;;0.60;0.60;;;20.80;44.20;;;;;;5073029;27;44053;-61
2022/03/27 00:27:00;;;;;;;0.93;0.80;;;20.70;44.10;;;;;;5108724;27;43773;-60
2022/03/27 00:29:27;;;;;;;0.73;0.73;;;20.70;44.20;;;;;;5045944;27;44082;-60
2022/03/27 00:31:55;;;;;;;1.05;0.75;;;20.70;44.10;;;;;;5049184;27;43478;-60
2022/03/27 00:34:22;;;;;;;1.42;0.88;;;20.70;44.20;;;;;;5055498;27;43443;-61
2022/03/27 00:36:50;;;;;;;0.93;0.90;;;20.70;44.20;;;;;;5041928;27;43776;-60
2022/03/27 00:39:18;;;;;;;1.50;0.93;;;20.60;44.20;;;;;;5044007;27;44924;-60
2022/03/27 00:41:45;;;;;;;1.52;0.70;;;20.60;44.20;;;;;;5046255;27;43528;-61
2022/03/27 00:44:13;;;;;;;1.00;0.90;;;20.60;44.20;;;;;;5048265;27;43442;-61
2022/03/27 00:46:41;;;;;;;0.77;0.65;;;20.60;44.30;;;;;;5085752;27;43809;-60
2022/03/27 00:49:08;;;;;;;1.13;0.85;;;20.60;44.20;;;;;;5071028;27;43765;-60
2022/03/27 00:51:35;;;;;;;1.33;0.70;;;20.60;44.20;;;;;;5075816;27;43466;-60
2022/03/27 00:54:04;;;;;;;1.30;0.90;;;20.60;44.20;;;;;;5131235;27;43505;-60
2022/03/27 00:56:32;;;;;;;1.00;0.80;;;20.50;44.20;;;;;;5090102;27;44659;-61
2022/03/27 00:58:59;;;;;;;1.20;0.90;;;20.50;44.10;;;;;;5048801;27;43457;-61
2022/03/27 01:01:36;;;;;;;0.90;0.80;;;20.60;44.20;;;;;;5050139;27;43521;-61
2022/03/27 01:04:05;;;;;;;1.60;1.00;;;20.50;44.10;;;;;;5048033;27;43548;-61
2022/03/27 01:06:44;;;;;;;1.35;0.90;;;20.50;44.20;;;;;;5111017;27;43774;-60
2022/03/27 01:12:17;;;;;;;1.13;0.95;;;20.60;44.20;;;;;;5050196;27;43489;-61
2022/03/27 01:14:45;;;;;;;1.60;0.90;;;20.50;44.10;;;;;;5111962;27;43513;-60
2022/03/27 01:17:17;;;;;;;0.80;0.70;;;20.50;44.10;;;;;;5049700;27;43761;-61
2022/03/27 01:19:49;;;;;;;0.88;0.70;;;20.50;44.10;;;;;;5045700;27;43425;-61
2022/03/27 01:22:19;;;;;;;1.42;1.08;;;20.50;44.10;;;;;;5048660;27;43528;-60
2022/03/27 01:24:49;;;;;;;1.00;0.90;;;20.40;44.10;;;;;;5054154;27;43557;-61
2022/03/27 01:27:17;;;;;;;1.10;0.90;;;20.50;44.10;;;;;;5047873;27;43792;-61
2022/03/27 01:29:45;;;;;;;0.98;0.70;;;20.50;44.10;;;;;;5042677;27;43689;-60
2022/03/27 01:32:14;;;;;;;1.48;0.90;;;20.40;44.10;;;;;;5047839;27;43520;-60
2022/03/27 01:34:47;;;;;;;1.52;1.00;;;20.40;44.10;;;;;;5065644;27;43531;-61
2022/03/27 01:37:15;;;;;;;1.10;1.00;;;20.40;44.00;;;;;;5046262;27;44987;-61
2022/03/27 01:39:43;;;;;;;0.82;0.68;;;20.40;44.10;;;;;;5047353;27;43796;-60
2022/03/27 01:42:12;;;;;;;0.90;0.90;;;20.40;44.10;;;;;;5046545;27;43432;-60
2022/03/27 01:44:40;;;;;;;1.23;0.90;;;20.40;44.10;;;;;;5047408;27;43635;-61
2022/03/27 01:47:07;;;;;;;1.80;1.27;;;20.40;44.10;;;;;;5084454;27;44717;-60
2022/03/27 01:49:35;;;;;;;1.75;1.05;;;20.30;44.10;;;;;;5110036;27;43950;-61
2022/03/27 01:52:03;;;;;;;1.20;1.02;;;20.30;44.00;;;;;;5079532;27;43433;-60
2022/03/27 01:54:31;;;;;;;1.55;0.95;;;20.30;44.00;;;;;;5069540;27;43474;-61
2022/03/27 01:56:58;;;;;;;1.27;0.88;;;20.30;44.10;;;;;;5048666;27;43812;-61
2022/03/27 01:59:26;;;;;;;1.00;0.90;;;20.20;44.00;;;;;;5047399;27;43401;-61
2022/03/27 02:01:53;;;;;;;1.48;1.10;;;20.30;44.10;;;;;;5047438;27;43431;-61
2022/03/27 02:04:21;;;;;;;1.88;1.10;;;20.30;44.10;;;;;;5046155;27;43581;-60
2022/03/27 02:06:49;;;;;;;1.25;0.90;;;20.20;44.10;;;;;;5047505;27;45001;-61
2022/03/27 02:09:16;;;;;;;1.10;0.90;;;20.20;44.10;;;;;;5047358;27;43689;-62
2022/03/27 02:11:44;;;;;;;0.90;0.90;;;20.20;44.10;;;;;;5047953;27;43561;-61
2022/03/27 02:14:11;;;;;;;1.10;1.00;;;20.20;44.10;;;;;;5046456;27;43462;-60
2022/03/27 02:16:39;;;;;;;1.80;1.20;;;20.20;44.10;;;;;;5047362;27;43781;-60
2022/03/27 02:19:11;;;;;;;0.98;0.88;;;20.20;44.10;;;;;;5047010;27;44066;-61
2022/03/27 02:21:41;;;;;;;2.97;1.33;;;20.20;44.00;;;;;;5050205;27;43461;-61
2022/03/27 02:24:10;;;;;;;1.92;1.33;;;20.20;44.10;;;;;;5048351;27;43565;-61
2022/03/27 02:26:45;;;;;;;1.60;1.33;;;20.20;44.10;;;;;;5090631;27;44068;-61
2022/03/27 02:29:14;;;;;;;2.85;1.40;;;20.20;44.20;;;;;;5109283;27;43483;-61
2022/03/27 02:31:43;;;;;;;1.70;1.30;;;20.10;44.10;;;;;;5072839;27;43441;-61
2022/03/27 02:34:11;;;;;;;1.45;1.08;;;20.10;44.10;;;;;;5137152;27;43615;-60
2022/03/27 02:36:38;;;;;;;1.75;1.02;;;20.10;44.10;;;;;;5115216;27;43807;-61
2022/03/27 02:39:06;;;;;;;2.40;1.45;;;20.10;44.10;;;;;;5073796;27;43466;-60
2022/03/27 02:41:33;;;;;;;1.95;1.20;;;20.10;44.10;;;;;;5071962;27;43447;-61
2022/03/27 02:44:01;;;;;;;1.92;1.30;;;20.10;44.10;;;;;;5134379;27;43595;-60
2022/03/27 02:46:28;;;;;;;1.38;1.27;;;20.00;44.00;;;;;;5067239;27;45112;-60
2022/03/27 02:48:56;;;;;;;2.65;1.35;;;20.00;44.10;;;;;;5046284;27;43426;-61
2022/03/27 02:51:23;;;;;;;1.65;1.30;;;20.00;44.10;;;;;;5045682;27;43550;-61
2022/03/27 02:53:51;;;;;;;1.60;1.25;;;20.00;44.00;;;;;;5106869;27;44247;-61
2022/03/27 02:56:18;;;;;;;1.77;1.30;;;20.00;44.10;;;;;;5046831;27;43844;-60
2022/03/27 02:58:46;;;;;;;1.73;1.45;;;20.00;44.10;;;;;;5046758;27;43468;-60
2022/03/27 03:01:13;;;;;;;1.73;1.33;;;20.00;44.10;;;;;;5054652;27;43519;-61
2022/03/27 03:03:42;;;;;;;1.98;1.30;;;19.90;44.00;;;;;;5047731;27;43632;-61
2022/03/27 03:06:09;;;;;;;1.30;1.20;;;19.90;44.10;;;;;;5042914;27;43793;-61
2022/03/27 03:08:38;;;;;;;2.55;1.60;;;19.90;44.10;;;;;;5046543;27;43626;-61
2022/03/27 03:11:06;;;;;;;2.17;1.30;;;19.90;44.10;;;;;;5052645;27;43541;-60
2022/03/27 03:13:34;;;;;;;2.08;1.45;;;19.90;44.10;;;;;;5041696;28;43567;-60
2022/03/27 03:16:02;;;;;;;2.08;1.20;;;19.90;44.10;;;;;;5046968;27;43796;-61
2022/03/27 03:18:33;;;;;;;2.97;1.42;;;19.90;44.10;;;;;;5046069;27;43677;-60
2022/03/27 03:21:01;;;;;;;2.35;1.48;;;19.90;44.10;;;;;;5046520;27;43433;-60
2022/03/27 03:23:28;;;;;;;2.28;1.58;;;19.80;44.00;;;;;;5041387;28;43472;-60
2022/03/27 03:25:56;;;;;;;2.78;1.45;;;19.90;44.70;;;;;;5046403;27;44722;-61
2022/03/27 03:28:34;;;;;;;2.05;1.30;;;19.80;44.00;;;;;;5053941;27;43486;-61
2022/03/27 03:31:01;;;;;;;2.53;1.63;;;19.80;44.00;;;;;;5046970;27;43449;-61
2022/03/27 03:33:29;;;;;;;2.67;1.75;;;19.80;44.10;;;;;;5047034;27;43507;-61
2022/03/27 03:35:57;;;;;;;2.55;1.70;;;19.80;44.10;;;;;;5046758;27;44722;-60
2022/03/27 03:38:24;;;;;;;3.20;1.65;;;19.80;44.10;;;;;;5052368;27;43691;-61
2022/03/27 03:40:51;;;;;;;2.65;1.80;;;19.80;44.10;;;;;;5047038;27;43394;-61
2022/03/27 03:43:20;;;;;;;3.40;1.73;;;19.80;44.10;;;;;;5047035;27;43493;-62
2022/03/27 03:45:48;;;;;;;3.22;1.70;;;19.70;44.00;;;;;;5040965;28;44045;-60
2022/03/27 03:48:16;;;;;;;3.08;1.77;;;19.70;44.10;;;;;;5047070;27;43786;-60
2022/03/27 03:50:43;;;;;;;5.05;2.25;;;19.70;44.00;;;;;;5046362;27;43830;-60
2022/03/27 03:53:11;;;;;;;2.88;1.95;;;19.70;44.10;;;;;;5046704;27;43520;-61
2022/03/27 03:55:38;;;;;;;4.22;2.13;;;19.70;44.10;;;;;;5046257;27;44667;-61
2022/03/27 03:58:06;;;;;;;3.17;1.90;;;19.70;44.10;;;;;;5051919;27;43971;-60
2022/03/27 04:00:33;;;;;;;3.38;1.90;;;19.60;44.10;;;;;;5046090;27;43468;-61
2022/03/27 04:03:03;;;;;;;4.35;2.15;;;19.60;44.10;;;;;;5045972;27;43671;-61
2022/03/27 04:05:32;;;;;;;4.00;1.95;;;19.70;44.10;;;;;;5044514;27;44052;-61
2022/03/27 04:07:59;;;;;;;3.78;2.08;;;19.70;44.10;;;;;;5050889;27;43557;-62
2022/03/27 04:10:27;;;;;;;3.08;1.95;;;19.70;44.10;;;;;;5046401;27;43513;-61
2022/03/27 04:12:55;;;;;;;3.80;2.10;;;19.60;44.10;;;;;;5045923;27;43514;-62
2022/03/27 04:15:23;;;;;;;3.83;2.30;;;19.60;44.10;;;;;;5040112;28;44788;-61
2022/03/27 04:18:11;;;;;;;4.43;2.00;;;19.60;44.10;;;;;;5035603;27;43726;-61
2022/03/27 04:20:41;;;;;;;4.35;1.98;;;19.60;44.10;;;;;;5043171;27;43450;-60
2022/03/27 04:23:08;;;;;;;3.67;2.05;;;19.60;44.10;;;;;;5045574;27;43496;-60
2022/03/27 04:25:36;;;;;;;4.43;1.90;;;19.50;44.10;;;;;;5051447;27;44087;-61
2022/03/27 04:28:05;;;;;;;3.45;2.17;;;19.50;44.10;;;;;;5108260;27;43405;-61
2022/03/27 04:30:32;;;;;;;3.35;2.00;;;19.50;44.10;;;;;;5063416;27;43475;-60
2022/03/27 04:33:00;;;;;;;3.45;1.90;;;19.50;44.10;;;;;;5111011;27;43632;-61
2022/03/27 04:35:28;;;;;;;5.18;2.17;;;19.50;44.10;;;;;;5111308;27;44044;-61
2022/03/27 04:37:55;;;;;;;3.53;2.22;;;19.50;44.10;;;;;;5106346;27;43714;-60
2022/03/27 04:40:23;;;;;;;4.30;2.38;;;19.50;44.10;;;;;;5059464;27;43443;-61
2022/03/27 04:42:50;;;;;;;4.30;2.20;;;19.50;44.10;;;;;;5109282;27;43471;-61
2022/03/27 04:45:18;;;;;;;6.72;2.55;;;19.50;44.10;;;;;;5116121;27;44314;-61
2022/03/27 04:47:45;;;;;;;3.83;2.20;;;19.50;44.10;;;;;;5079717;27;43720;-61
2022/03/27 04:50:12;;;;;;;3.78;2.38;;;19.50;44.10;;;;;;5053381;27;43412;-61
2022/03/27 04:52:40;;;;;;;5.20;2.75;;;19.50;44.10;;;;;;5045038;27;43457;-60
2022/03/27 04:55:08;;;;;;;4.63;2.30;;;19.40;44.00;;;;;;5101377;27;44722;-60
2022/03/27 04:57:38;;;;;;;3.67;2.20;;;19.40;44.10;;;;;;5075158;27;43717;-60
2022/03/27 05:00:10;;;;;;;4.43;2.50;;;19.40;44.00;;;;;;5045463;27;43471;-60
2022/03/27 05:02:39;;;;;;;5.05;2.72;;;19.40;44.10;;;;;;5046002;27;43511;-60
2022/03/27 05:05:10;;;;;;;5.20;2.33;;;19.40;44.10;;;;;;5050944;27;44714;-61
2022/03/27 05:07:38;;;;;;;;;;;19.40;44.10;;;;;;5065690;27;43512;-61
2022/03/27 05:10:07;;;;;;;4.18;2.42;;;19.40;44.10;;;;;;5045433;27;43468;-60
2022/03/27 05:12:34;;;;;;;4.53;2.28;;;19.30;44.10;;;;;;5045081;27;43515;-61
2022/03/27 05:15:03;;;;;;;4.90;2.65;;;19.30;44.10;;;;;;5044682;27;43754;-61
2022/03/27 05:17:30;;;;;;;5.03;2.60;;;19.30;44.10;;;;;;5044939;27;43945;-61
2022/03/27 05:19:58;;;;;;;6.13;2.80;;;19.30;44.10;;;;;;5040002;27;44037;-62
2022/03/27 05:22:26;;;;;;;4.80;2.22;;;19.30;44.10;;;;;;5044428;27;43513;-61
2022/03/27 05:24:54;;;;;;;4.45;2.65;;;19.30;44.10;;;;;;5043297;27;44698;-60
2022/03/27 05:27:22;;;;;;;6.10;2.45;;;19.30;44.00;;;;;;5042530;27;43763;-60
2022/03/27 05:29:49;;;;;;;4.88;2.40;;;19.30;44.70;;;;;;5047153;27;43451;-60
2022/03/27 05:32:17;;;;;;;5.45;2.65;;;19.30;44.10;;;;;;5046664;27;43468;-60
2022/03/27 05:34:44;;;;;;;4.95;2.53;;;19.20;44.10;;;;;;5110124;27;44826;-61
2022/03/27 05:37:13;;;;;;;3.72;2.10;;;19.30;44.10;;;;;;5048150;27;43567;-61
2022/03/27 05:39:41;;;;;;;5.20;2.70;;;19.30;44.10;;;;;;5047481;27;43434;-61
2022/03/27 05:42:08;;;;;;;5.65;2.60;;;19.20;44.10;;;;;;5046823;27;43446;-60
2022/03/27 05:44:36;;;;;;;5.25;2.33;;;19.20;44.00;;;;;;5051702;27;43656;-60
2022/03/27 05:47:04;;;;;;;4.78;2.65;;;19.20;44.00;;;;;;5043536;27;43433;-61
2022/03/27 05:49:31;;;;;;;4.97;2.55;;;19.20;44.00;;;;;;5047567;27;43375;-60
2022/03/27 05:51:58;;;;;;;5.25;2.88;;;19.20;44.00;;;;;;5046530;27;43429;-60
2022/03/27 05:54:26;;;;;;;5.57;2.60;;;19.20;44.10;;;;;;5044181;27;44693;-61
2022/03/27 05:56:57;;;;;;;4.75;2.53;;;19.20;44.10;;;;;;5087060;27;43671;-61
2022/03/27 05:59:25;;;;;;;4.07;2.40;;;19.20;44.10;;;;;;5116259;27;43472;-61
2022/03/27 06:01:52;;;;;;;4.72;2.28;;;19.20;44.10;;;;;;5080974;27;43477;-60
2022/03/27 06:04:20;;;;;;;4.68;2.63;;;19.20;44.10;;;;;;5065735;27;44062;-60
2022/03/27 06:06:47;;;;;;;5.22;2.60;;;19.20;44.10;;;;;;5088658;27;43499;-60
2022/03/27 06:09:20;;;;;;;5.30;3.13;;;19.10;44.00;;;;;;5111532;27;43477;-61
2022/03/27 06:11:49;;;;;;;5.35;2.80;;;19.10;44.00;;;;;;5062668;27;43458;-60
2022/03/27 06:14:16;;;;;;;5.50;2.60;;;19.20;44.10;;;;;;5052355;27;44031;-60
2022/03/27 06:16:43;;;;;;;4.97;2.58;;;19.10;44.00;;;;;;5047032;27;43680;-60
2022/03/27 06:19:11;;;;;;;5.18;2.70;;;19.10;44.10;;;;;;5046986;27;44023;-61
2022/03/27 06:21:39;;;;;;;6.13;2.67;;;19.10;44.10;;;;;;5051893;27;43464;-60
2022/03/27 06:24:06;;;;;;;5.53;2.40;;;19.10;44.10;;;;;;5048299;27;44896;-61
2022/03/27 06:26:34;;;;;;;6.85;2.88;;;19.10;44.10;;;;;;5047423;27;43703;-61
2022/03/27 06:29:01;;;;;;;4.93;2.58;;;19.10;44.10;;;;;;5047440;27;43518;-61
2022/03/27 06:31:29;;;;;;;4.45;2.40;;;19.10;44.10;;;;;;5052793;27;43519;-61
2022/03/27 06:33:56;;;;;;;6.38;2.85;;;19.10;44.10;;;;;;5055881;27;44204;-61
2022/03/27 06:36:24;;;;;;;5.13;2.70;;;19.10;44.10;;;;;;5047268;27;43486;-61
2022/03/27 06:38:51;;;;;;;5.32;2.60;;;19.00;44.10;;;;;;5046566;27;43929;-60
2022/03/27 06:41:21;;;;;;;6.15;2.80;;;19.00;44.10;;;;;;5051562;27;43556;-60
2022/03/27 06:43:49;;;;;;;5.32;2.70;;;19.00;44.20;;;;;;5047224;27;44701;-60
2022/03/27 06:46:17;;;;;;;5.40;2.67;;;19.00;44.20;;;;;;5046890;27;43701;-60
2022/03/27 06:48:45;;;;;;;4.10;2.40;;;19.00;44.20;;;;;;5047257;27;43520;-60
2022/03/27 06:51:13;;;;;;;5.57;2.65;;;19.00;44.20;;;;;;5039562;27;43529;-61
2022/03/27 06:53:41;;;;;;;5.15;2.50;;;19.00;44.20;;;;;;5047101;27;43819;-61
2022/03/27 06:56:09;;;;;;;5.20;2.72;;;19.00;44.30;;;;;;5039537;28;43711;-61
2022/03/27 06:58:36;;;;;;;5.97;2.70;;;19.00;44.30;;;;;;5065375;27;43426;-60
2022/03/27 07:03:53;;;;;;;4.18;2.50;;;19.00;44.30;;;;;;5046069;27;46197;-61
2022/03/27 07:06:21;;;;;;;5.88;2.53;;;18.90;44.30;;;;;;5074943;27;44017;-61
2022/03/27 07:08:48;;;;;;;5.63;2.80;;;18.90;44.30;;;;;;5064393;27;43479;-61
2022/03/27 07:11:16;;;;;;;5.22;2.55;;;19.00;44.30;;;;;;5057692;27;43428;-60
2022/03/27 07:13:43;;;;;;;5.63;2.80;;;19.00;44.40;;;;;;5072908;27;43800;-60
2022/03/27 07:16:11;;;;;;;5.13;2.35;;;18.90;44.30;;;;;;5070724;27;43522;-60
2022/03/27 07:18:39;;;;;;;4.72;2.70;;;18.90;44.40;;;;;;5056665;27;43486;-61
2022/03/27 07:21:06;;;;;;;6.20;2.97;;;18.90;44.40;;;;;;5067735;27;44108;-61
2022/03/27 07:23:34;;;;;;;4.57;2.72;;;18.90;44.40;;;;;;5068982;27;44043;-60
2022/03/27 07:26:01;;;;;;;7.28;3.05;;;18.90;44.40;;;;;;5044707;27;43624;-61
2022/03/27 07:28:31;;;;;;;6.85;2.97;;;18.90;44.50;;;;;;5060068;27;43493;-60
2022/03/27 07:30:59;;;;;;;6.30;2.95;;;18.90;44.60;;;;;;5037883;27;43849;-60
2022/03/27 07:33:27;;;;;;;5.95;2.80;;;18.90;44.60;;;;;;5066286;27;44995;-61
2022/03/27 07:35:56;;;;;;;4.88;2.63;;;18.90;44.70;;;;;;5054838;27;43513;-61
2022/03/27 07:38:23;;;;;;;4.50;2.50;;;18.90;44.70;;;;;;5040390;27;43507;-60
2022/03/27 07:40:51;;;;;;;5.90;2.80;;;18.90;44.70;;;;;;5055083;27;43631;-60
2022/03/27 07:43:19;;;;;;;4.60;2.40;;;18.90;44.70;;;;;;5043360;27;44074;-60
2022/03/27 07:45:46;;;;;;;6.50;2.67;;;18.90;44.80;;;;;;5054259;27;43569;-60
2022/03/27 07:48:14;;;;;;;6.00;2.40;;;18.90;44.80;;;;;;5052966;27;43376;-61
2022/03/27 07:50:41;;;;;;;4.75;2.55;;;18.90;44.80;;;;;;5050331;27;43680;-61
2022/03/27 07:53:09;;;;;;;5.63;2.47;;;18.90;44.80;;;;;;5039227;27;44062;-61
2022/03/27 07:55:37;;;;;;;7.13;3.10;;;18.90;44.80;;;;;;5100540;27;44009;-61
2022/03/27 07:58:05;;;;;;;5.70;2.60;;;18.80;44.80;;;;;;5048829;27;43443;-60
2022/03/27 08:00:32;;;;;;;5.07;2.50;;;18.90;44.90;;;;;;5045503;27;43584;-59
2022/03/27 08:03:00;;;;;;;5.00;2.72;;;18.90;44.80;;;;;;5045002;27;43786;-60
2022/03/27 08:05:28;;;;;;;5.88;2.80;;;18.90;44.90;;;;;;5033851;27;43980;-60
2022/03/27 08:07:55;;;;;;;6.78;2.97;;;18.90;44.80;;;;;;5080657;27;43466;-61
2022/03/27 08:10:23;;;;;;;6.53;3.20;;;19.00;44.80;;;;;;5042911;27;43534;-62
2022/03/27 08:12:52;;;;;;;5.03;2.25;;;19.00;44.60;;;;;;5039110;27;43858;-61
2022/03/27 08:15:21;;;;;;;5.03;2.72;;;19.00;44.60;;;;;;5052520;27;43802;-61
2022/03/27 08:17:53;;;;;;;6.00;2.80;;;19.00;44.60;;;;;;5030148;27;43445;-61
2022/03/27 08:20:24;;;;;;;4.63;2.53;;;19.10;44.60;;;;;;5031446;27;43551;-60
2022/03/27 08:22:51;;;;;;;5.57;2.83;;;19.10;44.50;;;;;;5030665;27;43910;-61
2022/03/27 08:28:10;;;;;;;6.75;3.33;;;19.10;44.70;;;;;;5002709;27;43609;-61
2022/03/27 08:30:39;;;;;;;5.15;3.17;;;19.10;44.70;;;;;;5034962;27;43472;-61
2022/03/27 08:33:07;;;;;;;5.90;2.97;;;19.10;44.80;;;;;;5033945;27;44288;-61
2022/03/27 08:35:34;;;;;;;4.80;2.70;;;19.10;44.90;;;;;;5033985;27;43728;-64
2022/03/27 08:38:02;;;;;;;5.68;2.92;;;19.10;44.90;;;;;;5098675;27;43463;-61
2022/03/27 08:40:31;;;;;;;6.47;3.10;;;19.20;44.90;;;;;;5034902;27;43593;-62
2022/03/27 08:42:59;;;;;;;7.15;3.40;;;19.30;44.80;;;;;;5045017;27;44774;-61
2022/03/27 08:45:28;;;;;;;7.30;3.42;;;19.40;44.70;;;;;;5079716;27;43523;-61
2022/03/27 08:47:55;;;;;;;6.10;2.97;;;19.60;44.80;;;;;;5034382;27;43469;-61
2022/03/27 08:50:34;;;;;;;6.22;2.88;;;19.80;44.50;;;;;;5033836;27;43588;-59
2022/03/27 08:53:05;;;;;;;6.43;3.10;;;19.90;44.50;;;;;;5112153;27;43915;-58
2022/03/27 08:55:35;;;;;;;8.10;3.20;;;20.10;44.80;;;;;;5030015;27;43995;-61
2022/03/27 08:58:03;;;;;;;8.27;3.20;;;20.30;44.80;;;;;;5032015;27;43473;-59
2022/03/27 09:00:33;;;;;;;8.35;2.47;;;20.50;44.70;;;;;;5032694;27;43541;-59
2022/03/27 09:03:03;;;;;;;7.85;3.20;;;20.70;44.50;;;;;;5038024;27;44006;-59
2022/03/27 09:05:34;;;;;;;6.85;3.35;;;20.90;44.30;;;;;;5035373;27;43973;-57
2022/03/27 09:08:05;;;;;;;8.40;3.15;;;21.10;44.00;;;;;;5038577;27;43411;-58
2022/03/27 09:10:33;;;;;;;8.40;3.40;;;21.30;43.70;;;;;;5052537;27;43467;-59
2022/03/27 09:13:01;;;;;;;6.80;2.70;;;21.50;43.50;;;;;;5066429;27;44728;-58
2022/03/27 09:15:29;;;;;;;7.00;2.88;;;21.60;43.40;;;;;;5061671;27;43979;-60
2022/03/27 09:17:57;;;;;;;6.32;2.90;;;21.70;43.20;;;;;;5042052;27;43610;-60
2022/03/27 09:20:35;;;;;;;7.28;2.83;;;21.80;43.00;;;;;;5040078;27;43446;-59
2022/03/27 09:23:14;;;;;;;5.22;2.60;;;22.00;42.90;;;;;;5037720;27;43787;-60
2022/03/27 09:25:49;;;;;;;5.40;2.50;;;22.10;42.90;;;;;;5075603;27;44094;-60
2022/03/27 09:28:40;;;;;;;5.47;2.75;;;22.20;42.50;;;;;;5040401;27;43516;-60
2022/03/27 09:31:18;;;;;;;;;;;22.40;42.30;;;;;;5095731;27;43616;-59
2022/03/27 09:33:49;;;;;;;6.55;2.70;;;22.40;42.30;;;;;;5043907;27;45028;-59
2022/03/27 09:36:19;;;;;;;7.30;2.80;;;22.50;43.20;;;;;;5043873;27;43720;-60
2022/03/27 09:39:18;;;;;;;7.28;3.15;;;22.60;42.30;;;;;;5065661;27;43431;-60
2022/03/27 09:41:48;;;;;;;4.82;2.63;;;22.80;42.50;;;;;;5046913;27;43509;-61
2022/03/27 09:44:29;;;;;;;6.65;2.88;;;22.90;42.40;;;;;;5035601;27;45978;-61
2022/03/27 09:47:01;;;;;;;6.18;2.70;;;23.10;42.50;;;;;;5039972;27;43967;-62
2022/03/27 09:49:38;;;;;;;8.68;3.20;;;23.30;42.20;;;;;;5048168;27;43426;-63
2022/03/27 09:52:12;;;;;;;6.20;3.10;;;23.50;41.90;;;;;;5039805;27;43561;-62
2022/03/27 09:54:46;;;;;;;5.55;2.72;;;23.70;41.80;;;;;;5040569;27;43811;-61
2022/03/27 09:57:38;;;;;;;5.97;3.13;;;23.90;41.50;;;;;;5035927;27;44109;-62
2022/03/27 10:00:13;;;;;;;7.18;2.83;;;24.10;41.50;;;;;;5056131;27;43452;-61
2022/03/27 10:02:45;;;;;;;6.35;3.42;;;24.30;41.00;;;;;;5057231;27;43530;-61
2022/03/27 10:05:14;;;;;;;7.03;3.17;;;24.40;41.00;;;;;;5044991;27;44916;-61
2022/03/27 10:07:47;;;;;;;7.63;3.05;;;24.50;41.60;;;;;;5041737;27;43966;-61
2022/03/27 10:10:17;;;;;;;6.40;2.88;;;24.50;40.80;;;;;;5040888;27;43521;-61
2022/03/27 10:12:46;;;;;;;4.90;2.77;;;24.60;41.00;;;;;;5107212;27;43535;-61
2022/03/27 10:15:18;;;;;;;7.77;3.00;;;24.60;40.80;;;;;;5050971;27;44045;-60
2022/03/27 10:17:55;;;;;;;5.00;2.45;;;24.60;40.70;;;;;;5049831;27;43997;-60
2022/03/27 10:20:32;;;;;;;6.00;3.05;;;24.60;40.70;;;;;;5100792;27;43461;-60
2022/03/27 10:23:09;;;;;;;6.82;3.13;;;24.60;40.70;;;;;;5053340;27;43544;-61
2022/03/27 10:25:42;;;;;;;8.68;3.22;;;24.50;40.70;;;;;;5042755;27;43794;-61
2022/03/27 10:28:10;;;;;;;5.95;3.00;;;24.50;40.80;;;;;;5034061;28;44072;-61
2022/03/27 10:30:41;;;;;;;5.10;2.67;;;24.50;40.90;;;;;;5088393;27;43450;-61
2022/03/27 10:33:09;;;;;;;5.97;2.95;;;24.50;41.00;;;;;;5063693;27;43552;-60
2022/03/27 10:35:57;;;;;;;4.65;2.40;;;24.40;41.00;;;;;;5044260;27;44313;-61
2022/03/27 10:38:42;;;;;;;6.22;3.03;;;24.40;41.10;;;;;;5076423;27;43551;-61
2022/03/27 10:41:34;;;;;;;5.50;2.70;;;24.30;41.20;;;;;;5044438;27;43542;-61
2022/03/27 10:44:33;;;;;;;5.63;2.88;;;24.30;41.30;;;;;;5053815;27;43628;-62
2022/03/27 10:47:18;;;;;;;6.63;3.05;;;24.30;41.40;;;;;;5033702;27;44264;-63
2022/03/27 10:50:00;;;;;;;5.43;2.70;;;24.30;41.50;;;;;;5078135;27;43923;-61
2022/03/27 10:52:32;;;;;;;5.80;2.95;;;24.30;41.50;;;;;;5053918;27;43530;-62
2022/03/27 10:55:02;;;;;;;6.70;2.55;;;24.20;41.50;;;;;;5059139;27;43545;-61
2022/03/27 10:57:34;;;;;;;6.27;2.93;;;24.10;41.40;;;;;;5050678;27;44129;-62
2022/03/27 11:00:04;;;;;;;7.05;2.80;;;24.10;41.60;;;;;;5033243;27;43402;-61
2022/03/27 11:02:53;;;;;;;6.10;3.33;;;24.10;41.50;;;;;;5042161;27;43432;-62
2022/03/27 11:05:35;;;;;;;5.78;2.65;;;24.10;41.90;;;;;;5031663;27;43931;-61
2022/03/27 11:08:17;;;;;;;5.40;2.72;;;24.10;41.90;;;;;;5037969;27;43952;-61
2022/03/27 11:10:59;;;;;;;6.78;2.65;;;24.00;41.90;;;;;;5059161;27;43437;-61
2022/03/27 11:13:27;;;;;;;5.90;2.70;;;24.00;42.00;;;;;;5050808;27;43475;-62
2022/03/27 11:16:09;;;;;;;4.95;2.75;;;24.00;42.00;;;;;;5037012;27;43438;-62
2022/03/27 11:18:49;;;;;;;5.55;2.63;;;24.00;42.00;;;;;;5054572;27;44050;-61
2022/03/27 11:21:29;;;;;;;5.27;2.80;;;24.00;42.70;;;;;;5033126;27;43458;-62
2022/03/27 11:24:02;;;;;;;7.10;2.60;;;24.00;41.90;;;;;;5031537;27;43541;-61
2022/03/27 11:26:30;;;;;;;4.78;2.30;;;24.00;42.00;;;;;;5039070;27;43646;-62
2022/03/27 11:29:05;;;;;;;6.13;2.97;;;23.90;42.00;;;;;;5076577;27;44991;-60
2022/03/27 11:31:35;;;;;;;5.13;2.50;;;23.90;42.10;;;;;;5034256;27;44014;-61
2022/03/27 11:34:08;;;;;;;5.28;2.40;;;23.90;42.10;;;;;;5058804;27;43467;-62
2022/03/27 11:36:37;;;;;;;6.63;2.40;;;24.00;42.10;;;;;;5051977;27;44131;-61
2022/03/27 11:39:28;;;;;;;7.03;2.88;;;23.90;42.10;;;;;;5069089;27;44032;-61
2022/03/27 11:42:32;;;;;;;5.30;2.50;;;24.00;42.20;;;;;;5031523;27;43503;-60
2022/03/27 11:45:10;;;;;;;6.60;3.00;;;23.90;42.20;;;;;;5035626;27;43835;-60
2022/03/27 11:47:43;;;;;;;8.13;3.17;;;23.90;42.20;;;;;;5036714;27;43600;-61
2022/03/27 11:50:25;;;;;;;4.72;2.60;;;23.90;42.20;;;;;;5049908;27;44032;-61
2022/03/27 11:52:53;;;;;;;4.20;2.30;;;23.90;42.20;;;;;;5035578;27;44013;-61
2022/03/27 11:55:21;;;;;;;6.13;2.50;;;23.90;42.20;;;;;;5032913;27;43485;-61
2022/03/27 11:57:57;;;;;;;7.22;2.70;;;23.90;42.30;;;;;;5040750;27;43557;-60
2022/03/27 12:00:31;;;;;;;5.93;2.40;;;24.00;42.30;;;;;;5036330;27;43816;-61
2022/03/27 12:02:59;;;;;;;5.25;2.38;;;23.90;42.30;;;;;;5034576;27;43989;-61
2022/03/27 12:05:38;;;;;;;3.92;2.10;;;24.00;42.40;;;;;;5082875;27;43558;-61
2022/03/27 12:08:07;;;;;;;6.07;2.35;;;24.00;42.40;;;;;;5033160;27;43600;-61
2022/03/27 12:10:54;;;;;;;5.05;2.45;;;24.00;42.40;;;;;;5039777;27;43778;-61
2022/03/27 12:13:22;;;;;;;5.32;2.70;;;24.00;42.40;;;;;;5030798;27;43520;-61
2022/03/27 12:15:53;;;;;;;4.65;2.50;;;24.00;42.40;;;;;;5053808;27;43527;-61
2022/03/27 12:18:30;;;;;;;6.80;2.90;;;24.00;42.40;;;;;;5061295;27;43622;-61
2022/03/27 12:21:12;;;;;;;6.05;2.63;;;24.00;42.40;;;;;;5035159;27;44065;-60
2022/03/27 12:23:49;;;;;;;8.43;2.60;;;24.00;42.50;;;;;;5058532;27;43461;-61
2022/03/27 12:29:52;;;;;;;6.55;3.10;;;24.00;42.60;;;;;;5036188;27;43446;-60
2022/03/27 12:32:26;;;;;;;6.22;2.95;;;24.00;42.50;;;;;;5056530;27;44997;-61
2022/03/27 12:34:57;;;;;;;7.90;3.03;;;23.90;42.40;;;;;;5040777;27;43716;-61
2022/03/27 12:37:26;;;;;;;7.00;3.03;;;24.00;42.50;;;;;;5054581;27;43528;-62
2022/03/27 12:39:53;;;;;;;7.72;3.20;;;24.00;42.50;;;;;;5033019;27;43595;-62
2022/03/27 12:42:34;;;;;;;7.30;3.08;;;23.90;42.40;;;;;;5035933;27;43953;-62
2022/03/27 12:45:40;;;;;;;7.10;3.05;;;24.00;42.40;;;;;;5045660;27;43442;-60
2022/03/27 12:48:18;;;;;;;8.48;3.25;;;24.00;42.50;;;;;;5040044;27;43538;-61
2022/03/27 12:50:52;;;;;;;7.80;3.20;;;24.00;42.50;;;;;;5061246;27;43588;-61
2022/03/27 12:53:22;;;;;;;5.50;3.00;;;24.00;42.50;;;;;;5052327;27;44063;-61
2022/03/27 12:55:53;;;;;;;6.32;2.90;;;24.00;42.50;;;;;;5038984;27;43974;-61
2022/03/27 12:58:33;;;;;;;4.97;2.70;;;24.00;42.50;;;;;;5036789;27;43512;-62
2022/03/27 13:01:15;;;;;;;6.40;3.13;;;24.10;42.50;;;;;;5066376;27;43399;-61
2022/03/27 13:04:07;;;;;;;5.40;3.00;;;24.10;42.50;;;;;;5038122;27;44704;-61
2022/03/27 13:06:36;;;;;;;6.05;2.70;;;24.10;42.50;;;;;;5039404;27;43464;-62
2022/03/27 13:09:05;;;;;;;5.20;2.85;;;24.10;42.50;;;;;;5037100;27;43428;-61
2022/03/27 13:11:44;;;;;;;4.70;2.95;;;24.10;42.50;;;;;;5044037;27;43563;-61
2022/03/27 13:14:14;;;;;;;5.07;2.53;;;24.10;42.50;;;;;;5050714;27;43611;-61
2022/03/27 13:16:48;;;;;;;5.28;2.65;;;24.10;42.50;;;;;;5074451;27;43435;-61
2022/03/27 13:19:20;;;;;;;5.95;2.75;;;24.10;42.50;;;;;;5057413;27;43459;-62